sensor_id;sensor_type;location;lat;lon;timestamp;P1;durP1;ratioP1;P2;durP2;ratioP2
22193;SDS011;11262;50.308;9.270;2022-08-03T00:01:28;8.73;;;4.70;;
22193;SDS011;11262;50.308;9.270;2022-08-03T00:03:54;4.70;;;4.00;;
22193;SDS011;11262;50.308;9.270;2022-08-03T00:06:20;9.50;;;4.40;;
22193;SDS011;11262;50.308;9.270;2022-08-03T00:08:45;6.40;;;4.43;;
22193;SDS011;11262;50.308;9.270;2022-08-03T00:11:11;5.77;;;4.27;;
22193;SDS011;11262;50.308;9.270;2022-08-03T00:13:37;9.10;;;4.73;;
22193;SDS011;11262;50.308;9.270;2022-08-03T00:16:02;10.70;;;4.50;;
22193;SDS011;11262;50.308;9.270;2022-08-03T00:18:28;7.53;;;4.30;;
22193;SDS011;11262;50.308;9.270;2022-08-03T00:20:54;9.57;;;4.40;;
22193;SDS011;11262;50.308;9.270;2022-08-03T00:23:19;12.07;;;4.97;;
22193;SDS011;11262;50.308;9.270;2022-08-03T00:25:45;7.63;;;4.87;;
22193;SDS011;11262;50.308;9.270;2022-08-03T00:28:11;8.73;;;4.73;;
22193;SDS011;11262;50.308;9.270;2022-08-03T00:30:36;11.60;;;4.80;;
22193;SDS011;11262;50.308;9.270;2022-08-03T00:33:02;9.90;;;4.80;;
22193;SDS011;11262;50.308;9.270;2022-08-03T00:35:28;9.73;;;4.67;;
22193;SDS011;11262;50.308;9.270;2022-08-03T00:37:55;9.60;;;4.90;;
22193;SDS011;11262;50.308;9.270;2022-08-03T00:40:22;10.73;;;5.10;;
22193;SDS011;11262;50.308;9.270;2022-08-03T00:45:24;7.73;;;4.97;;
22193;SDS011;11262;50.308;9.270;2022-08-03T00:47:52;8.73;;;4.90;;
22193;SDS011;11262;50.308;9.270;2022-08-03T00:50:18;7.33;;;4.77;;
22193;SDS011;11262;50.308;9.270;2022-08-03T00:52:47;6.83;;;4.87;;
22193;SDS011;11262;50.308;9.270;2022-08-03T00:55:14;6.57;;;4.67;;
22193;SDS011;11262;50.308;9.270;2022-08-03T00:57:41;7.90;;;4.70;;
22193;SDS011;11262;50.308;9.270;2022-08-03T01:00:07;8.33;;;4.83;;
22193;SDS011;11262;50.308;9.270;2022-08-03T01:02:35;9.03;;;4.83;;
22193;SDS011;11262;50.308;9.270;2022-08-03T01:05:01;5.20;;;4.50;;
22193;SDS011;11262;50.308;9.270;2022-08-03T01:07:36;6.60;;;4.77;;
22193;SDS011;11262;50.308;9.270;2022-08-03T01:10:25;6.17;;;4.57;;
22193;SDS011;11262;50.308;9.270;2022-08-03T01:12:58;6.43;;;4.50;;
22193;SDS011;11262;50.308;9.270;2022-08-03T01:15:45;10.17;;;4.80;;
22193;SDS011;11262;50.308;9.270;2022-08-03T01:18:42;8.57;;;4.90;;
22193;SDS011;11262;50.308;9.270;2022-08-03T01:21:19;6.77;;;4.30;;
22193;SDS011;11262;50.308;9.270;2022-08-03T01:29:40;7.27;;;4.50;;
22193;SDS011;11262;50.308;9.270;2022-08-03T01:32:11;7.20;;;4.53;;
22193;SDS011;11262;50.308;9.270;2022-08-03T01:34:43;7.60;;;4.50;;
22193;SDS011;11262;50.308;9.270;2022-08-03T01:37:12;13.77;;;6.07;;
22193;SDS011;11262;50.308;9.270;2022-08-03T01:39:43;7.37;;;4.30;;
22193;SDS011;11262;50.308;9.270;2022-08-03T01:42:10;7.17;;;4.43;;
22193;SDS011;11262;50.308;9.270;2022-08-03T01:44:39;6.27;;;4.43;;
22193;SDS011;11262;50.308;9.270;2022-08-03T01:47:06;5.70;;;4.37;;
22193;SDS011;11262;50.308;9.270;2022-08-03T01:49:34;8.33;;;4.83;;
22193;SDS011;11262;50.308;9.270;2022-08-03T01:52:03;6.97;;;4.30;;
22193;SDS011;11262;50.308;9.270;2022-08-03T01:54:31;5.23;;;4.27;;
22193;SDS011;11262;50.308;9.270;2022-08-03T01:57:00;8.33;;;4.97;;
22193;SDS011;11262;50.308;9.270;2022-08-03T01:59:27;6.50;;;4.70;;
22193;SDS011;11262;50.308;9.270;2022-08-03T02:01:54;6.97;;;4.53;;
22193;SDS011;11262;50.308;9.270;2022-08-03T02:04:21;8.33;;;4.23;;
22193;SDS011;11262;50.308;9.270;2022-08-03T02:06:49;6.17;;;4.47;;
22193;SDS011;11262;50.308;9.270;2022-08-03T02:09:16;6.97;;;4.50;;
22193;SDS011;11262;50.308;9.270;2022-08-03T02:11:44;7.03;;;4.43;;
22193;SDS011;11262;50.308;9.270;2022-08-03T02:14:11;5.10;;;4.27;;
22193;SDS011;11262;50.308;9.270;2022-08-03T02:16:39;7.57;;;4.57;;
22193;SDS011;11262;50.308;9.270;2022-08-03T02:19:07;9.40;;;4.93;;
22193;SDS011;11262;50.308;9.270;2022-08-03T02:21:35;10.10;;;5.10;;
22193;SDS011;11262;50.308;9.270;2022-08-03T02:24:02;7.00;;;4.57;;
22193;SDS011;11262;50.308;9.270;2022-08-03T02:26:29;7.07;;;4.63;;
22193;SDS011;11262;50.308;9.270;2022-08-03T02:28:55;8.43;;;5.10;;
22193;SDS011;11262;50.308;9.270;2022-08-03T02:31:23;11.13;;;5.10;;
22193;SDS011;11262;50.308;9.270;2022-08-03T02:34:00;8.40;;;4.93;;
22193;SDS011;11262;50.308;9.270;2022-08-03T02:36:28;10.07;;;5.07;;
22193;SDS011;11262;50.308;9.270;2022-08-03T02:38:57;6.93;;;4.60;;
22193;SDS011;11262;50.308;9.270;2022-08-03T02:42:09;6.00;;;4.43;;
22193;SDS011;11262;50.308;9.270;2022-08-03T02:44:13;7.07;;;4.90;;
22193;SDS011;11262;50.308;9.270;2022-08-03T02:46:43;7.90;;;5.10;;
22193;SDS011;11262;50.308;9.270;2022-08-03T02:49:12;9.17;;;5.33;;
22193;SDS011;11262;50.308;9.270;2022-08-03T02:51:40;10.27;;;4.90;;
22193;SDS011;11262;50.308;9.270;2022-08-03T02:54:07;9.63;;;4.90;;
22193;SDS011;11262;50.308;9.270;2022-08-03T02:56:34;7.60;;;4.90;;
22193;SDS011;11262;50.308;9.270;2022-08-03T02:59:01;8.07;;;4.53;;
22193;SDS011;11262;50.308;9.270;2022-08-03T03:01:28;10.63;;;4.70;;
22193;SDS011;11262;50.308;9.270;2022-08-03T03:03:55;5.97;;;4.70;;
22193;SDS011;11262;50.308;9.270;2022-08-03T03:06:22;7.13;;;4.93;;
22193;SDS011;11262;50.308;9.270;2022-08-03T03:08:51;6.80;;;4.47;;
22193;SDS011;11262;50.308;9.270;2022-08-03T03:11:18;5.70;;;4.63;;
22193;SDS011;11262;50.308;9.270;2022-08-03T03:13:46;8.33;;;4.97;;
22193;SDS011;11262;50.308;9.270;2022-08-03T03:16:14;5.97;;;5.17;;
22193;SDS011;11262;50.308;9.270;2022-08-03T03:18:41;8.00;;;5.93;;
22193;SDS011;11262;50.308;9.270;2022-08-03T03:21:08;8.30;;;4.93;;
22193;SDS011;11262;50.308;9.270;2022-08-03T03:23:36;6.37;;;4.70;;
22193;SDS011;11262;50.308;9.270;2022-08-03T03:26:03;8.67;;;4.67;;
22193;SDS011;11262;50.308;9.270;2022-08-03T03:28:30;8.33;;;5.03;;
22193;SDS011;11262;50.308;9.270;2022-08-03T03:30:56;7.10;;;5.00;;
22193;SDS011;11262;50.308;9.270;2022-08-03T03:33:22;9.13;;;4.93;;
22193;SDS011;11262;50.308;9.270;2022-08-03T03:35:48;10.20;;;4.90;;
22193;SDS011;11262;50.308;9.270;2022-08-03T03:38:15;5.53;;;4.67;;
22193;SDS011;11262;50.308;9.270;2022-08-03T03:40:41;8.67;;;4.30;;
22193;SDS011;11262;50.308;9.270;2022-08-03T03:43:08;8.17;;;5.27;;
22193;SDS011;11262;50.308;9.270;2022-08-03T03:45:35;6.55;;;4.55;;
22193;SDS011;11262;50.308;9.270;2022-08-03T03:48:02;7.33;;;4.40;;
22193;SDS011;11262;50.308;9.270;2022-08-03T03:50:30;9.37;;;4.60;;
22193;SDS011;11262;50.308;9.270;2022-08-03T03:52:57;4.90;;;4.40;;
22193;SDS011;11262;50.308;9.270;2022-08-03T03:55:23;8.10;;;4.33;;
22193;SDS011;11262;50.308;9.270;2022-08-03T03:57:48;7.30;;;4.27;;
22193;SDS011;11262;50.308;9.270;2022-08-03T04:00:14;6.87;;;4.50;;
22193;SDS011;11262;50.308;9.270;2022-08-03T04:02:41;6.57;;;4.23;;
22193;SDS011;11262;50.308;9.270;2022-08-03T04:05:08;7.57;;;4.77;;
22193;SDS011;11262;50.308;9.270;2022-08-03T04:13:41;5.90;;;4.43;;
22193;SDS011;11262;50.308;9.270;2022-08-03T04:16:13;5.70;;;4.50;;
22193;SDS011;11262;50.308;9.270;2022-08-03T04:18:40;7.17;;;4.47;;
22193;SDS011;11262;50.308;9.270;2022-08-03T04:21:12;5.57;;;4.40;;
22193;SDS011;11262;50.308;9.270;2022-08-03T04:23:42;7.37;;;4.20;;
22193;SDS011;11262;50.308;9.270;2022-08-03T04:26:11;6.87;;;4.83;;
22193;SDS011;11262;50.308;9.270;2022-08-03T04:28:39;6.03;;;4.60;;
22193;SDS011;11262;50.308;9.270;2022-08-03T04:31:07;7.70;;;4.60;;
22193;SDS011;11262;50.308;9.270;2022-08-03T04:33:34;8.53;;;4.40;;
22193;SDS011;11262;50.308;9.270;2022-08-03T04:36:02;4.20;;;3.80;;
22193;SDS011;11262;50.308;9.270;2022-08-03T04:38:31;10.40;;;5.00;;
22193;SDS011;11262;50.308;9.270;2022-08-03T04:41:01;7.47;;;5.13;;
22193;SDS011;11262;50.308;9.270;2022-08-03T04:43:27;6.03;;;4.60;;
22193;SDS011;11262;50.308;9.270;2022-08-03T04:45:54;5.27;;;4.50;;
22193;SDS011;11262;50.308;9.270;2022-08-03T04:48:21;7.80;;;4.77;;
22193;SDS011;11262;50.308;9.270;2022-08-03T04:50:46;5.97;;;4.43;;
22193;SDS011;11262;50.308;9.270;2022-08-03T04:53:12;5.63;;;4.47;;
22193;SDS011;11262;50.308;9.270;2022-08-03T04:55:38;6.53;;;4.30;;
22193;SDS011;11262;50.308;9.270;2022-08-03T04:58:04;5.37;;;4.40;;
22193;SDS011;11262;50.308;9.270;2022-08-03T05:00:30;7.13;;;4.73;;
22193;SDS011;11262;50.308;9.270;2022-08-03T05:02:56;6.33;;;4.37;;
22193;SDS011;11262;50.308;9.270;2022-08-03T05:05:22;6.47;;;4.63;;
22193;SDS011;11262;50.308;9.270;2022-08-03T05:07:47;7.87;;;4.23;;
22193;SDS011;11262;50.308;9.270;2022-08-03T05:10:14;6.10;;;4.37;;
22193;SDS011;11262;50.308;9.270;2022-08-03T05:12:40;4.93;;;4.10;;
22193;SDS011;11262;50.308;9.270;2022-08-03T05:15:06;8.67;;;4.17;;
22193;SDS011;11262;50.308;9.270;2022-08-03T05:17:32;8.57;;;4.27;;
22193;SDS011;11262;50.308;9.270;2022-08-03T05:19:58;5.30;;;4.03;;
22193;SDS011;11262;50.308;9.270;2022-08-03T05:22:24;4.73;;;4.00;;
22193;SDS011;11262;50.308;9.270;2022-08-03T05:24:50;8.07;;;4.13;;
22193;SDS011;11262;50.308;9.270;2022-08-03T05:27:15;5.30;;;4.30;;
22193;SDS011;11262;50.308;9.270;2022-08-03T05:29:43;4.90;;;4.07;;
22193;SDS011;11262;50.308;9.270;2022-08-03T05:32:10;5.20;;;3.83;;
22193;SDS011;11262;50.308;9.270;2022-08-03T05:34:35;4.90;;;3.73;;
22193;SDS011;11262;50.308;9.270;2022-08-03T05:37:01;9.10;;;4.00;;
22193;SDS011;11262;50.308;9.270;2022-08-03T05:39:26;5.03;;;4.03;;
22193;SDS011;11262;50.308;9.270;2022-08-03T05:41:52;3.93;;;3.40;;
22193;SDS011;11262;50.308;9.270;2022-08-03T05:44:18;6.20;;;3.80;;
22193;SDS011;11262;50.308;9.270;2022-08-03T05:46:43;8.27;;;3.70;;
22193;SDS011;11262;50.308;9.270;2022-08-03T05:49:09;6.33;;;3.87;;
22193;SDS011;11262;50.308;9.270;2022-08-03T05:51:34;5.77;;;3.80;;
22193;SDS011;11262;50.308;9.270;2022-08-03T05:54:01;7.30;;;3.90;;
22193;SDS011;11262;50.308;9.270;2022-08-03T05:56:26;4.47;;;3.40;;
22193;SDS011;11262;50.308;9.270;2022-08-03T05:58:52;8.30;;;3.70;;
22193;SDS011;11262;50.308;9.270;2022-08-03T06:01:18;6.47;;;3.53;;
22193;SDS011;11262;50.308;9.270;2022-08-03T06:03:48;3.53;;;3.20;;
22193;SDS011;11262;50.308;9.270;2022-08-03T06:06:14;5.73;;;3.40;;
22193;SDS011;11262;50.308;9.270;2022-08-03T06:08:40;9.53;;;3.83;;
22193;SDS011;11262;50.308;9.270;2022-08-03T06:11:07;4.60;;;3.50;;
22193;SDS011;11262;50.308;9.270;2022-08-03T06:13:33;5.60;;;3.20;;
22193;SDS011;11262;50.308;9.270;2022-08-03T06:15:59;3.77;;;3.40;;
22193;SDS011;11262;50.308;9.270;2022-08-03T06:18:24;5.33;;;3.47;;
22193;SDS011;11262;50.308;9.270;2022-08-03T06:20:50;4.70;;;3.40;;
22193;SDS011;11262;50.308;9.270;2022-08-03T06:23:16;3.97;;;3.03;;
22193;SDS011;11262;50.308;9.270;2022-08-03T06:25:42;7.67;;;3.30;;
22193;SDS011;11262;50.308;9.270;2022-08-03T06:28:08;5.70;;;3.57;;
22193;SDS011;11262;50.308;9.270;2022-08-03T06:30:34;3.87;;;3.30;;
22193;SDS011;11262;50.308;9.270;2022-08-03T06:33:00;3.80;;;3.17;;
22193;SDS011;11262;50.308;9.270;2022-08-03T06:35:25;6.77;;;3.40;;
22193;SDS011;11262;50.308;9.270;2022-08-03T06:37:52;4.30;;;3.30;;
22193;SDS011;11262;50.308;9.270;2022-08-03T06:40:19;4.57;;;3.23;;
22193;SDS011;11262;50.308;9.270;2022-08-03T06:42:59;4.63;;;3.10;;
22193;SDS011;11262;50.308;9.270;2022-08-03T06:45:26;5.30;;;3.60;;
22193;SDS011;11262;50.308;9.270;2022-08-03T06:50:30;4.33;;;3.57;;
22193;SDS011;11262;50.308;9.270;2022-08-03T06:52:57;4.57;;;3.50;;
22193;SDS011;11262;50.308;9.270;2022-08-03T06:55:23;6.97;;;3.33;;
22193;SDS011;11262;50.308;9.270;2022-08-03T06:57:48;8.33;;;3.40;;
22193;SDS011;11262;50.308;9.270;2022-08-03T07:00:14;7.47;;;3.40;;
22193;SDS011;11262;50.308;9.270;2022-08-03T07:02:40;3.50;;;3.20;;
22193;SDS011;11262;50.308;9.270;2022-08-03T07:05:06;3.37;;;3.00;;
22193;SDS011;11262;50.308;9.270;2022-08-03T07:07:33;5.90;;;3.30;;
22193;SDS011;11262;50.308;9.270;2022-08-03T07:09:58;4.63;;;3.37;;
22193;SDS011;11262;50.308;9.270;2022-08-03T07:12:25;5.83;;;3.20;;
22193;SDS011;11262;50.308;9.270;2022-08-03T07:14:51;3.87;;;3.20;;
22193;SDS011;11262;50.308;9.270;2022-08-03T07:17:17;7.53;;;2.90;;
22193;SDS011;11262;50.308;9.270;2022-08-03T07:19:43;3.70;;;3.17;;
22193;SDS011;11262;50.308;9.270;2022-08-03T07:22:08;7.43;;;3.10;;
22193;SDS011;11262;50.308;9.270;2022-08-03T07:24:35;3.23;;;2.93;;
22193;SDS011;11262;50.308;9.270;2022-08-03T07:27:01;5.20;;;2.93;;
22193;SDS011;11262;50.308;9.270;2022-08-03T07:29:26;6.13;;;3.20;;
22193;SDS011;11262;50.308;9.270;2022-08-03T07:31:52;4.67;;;3.10;;
22193;SDS011;11262;50.308;9.270;2022-08-03T07:34:18;3.27;;;2.97;;
22193;SDS011;11262;50.308;9.270;2022-08-03T07:36:43;4.27;;;3.00;;
22193;SDS011;11262;50.308;9.270;2022-08-03T07:39:09;5.93;;;2.90;;
22193;SDS011;11262;50.308;9.270;2022-08-03T07:41:35;4.97;;;3.17;;
22193;SDS011;11262;50.308;9.270;2022-08-03T07:44:01;3.30;;;3.00;;
22193;SDS011;11262;50.308;9.270;2022-08-03T07:46:26;3.93;;;3.20;;
22193;SDS011;11262;50.308;9.270;2022-08-03T07:48:52;6.40;;;3.20;;
22193;SDS011;11262;50.308;9.270;2022-08-03T07:51:18;3.67;;;3.00;;
22193;SDS011;11262;50.308;9.270;2022-08-03T07:53:43;2.97;;;2.70;;
22193;SDS011;11262;50.308;9.270;2022-08-03T07:56:09;4.60;;;2.83;;
22193;SDS011;11262;50.308;9.270;2022-08-03T07:58:35;4.50;;;2.87;;
22193;SDS011;11262;50.308;9.270;2022-08-03T08:01:01;6.93;;;3.13;;
22193;SDS011;11262;50.308;9.270;2022-08-03T08:03:27;3.93;;;2.77;;
22193;SDS011;11262;50.308;9.270;2022-08-03T08:05:52;3.23;;;2.70;;
22193;SDS011;11262;50.308;9.270;2022-08-03T08:08:18;2.80;;;2.60;;
22193;SDS011;11262;50.308;9.270;2022-08-03T08:10:44;3.77;;;3.00;;
22193;SDS011;11262;50.308;9.270;2022-08-03T08:13:11;5.03;;;2.80;;
22193;SDS011;11262;50.308;9.270;2022-08-03T08:15:36;2.97;;;2.60;;
22193;SDS011;11262;50.308;9.270;2022-08-03T08:18:02;2.93;;;2.67;;
22193;SDS011;11262;50.308;9.270;2022-08-03T08:20:30;4.00;;;2.77;;
22193;SDS011;11262;50.308;9.270;2022-08-03T08:22:58;4.50;;;2.93;;
22193;SDS011;11262;50.308;9.270;2022-08-03T08:25:25;4.37;;;2.70;;
22193;SDS011;11262;50.308;9.270;2022-08-03T08:27:51;7.63;;;2.83;;
22193;SDS011;11262;50.308;9.270;2022-08-03T08:30:18;5.13;;;2.80;;
22193;SDS011;11262;50.308;9.270;2022-08-03T08:32:45;4.53;;;2.80;;
22193;SDS011;11262;50.308;9.270;2022-08-03T08:35:12;2.70;;;2.50;;
22193;SDS011;11262;50.308;9.270;2022-08-03T08:37:38;4.00;;;2.77;;
22193;SDS011;11262;50.308;9.270;2022-08-03T08:40:05;5.30;;;2.80;;
22193;SDS011;11262;50.308;9.270;2022-08-03T08:42:32;6.30;;;2.80;;
22193;SDS011;11262;50.308;9.270;2022-08-03T08:45:01;4.87;;;2.90;;
22193;SDS011;11262;50.308;9.270;2022-08-03T08:47:29;5.40;;;2.70;;
22193;SDS011;11262;50.308;9.270;2022-08-03T08:49:56;2.77;;;2.57;;
22193;SDS011;11262;50.308;9.270;2022-08-03T08:52:23;6.23;;;2.90;;
22193;SDS011;11262;50.308;9.270;2022-08-03T08:54:52;2.77;;;2.57;;
22193;SDS011;11262;50.308;9.270;2022-08-03T08:57:21;4.40;;;2.80;;
22193;SDS011;11262;50.308;9.270;2022-08-03T08:59:50;5.67;;;2.73;;
22193;SDS011;11262;50.308;9.270;2022-08-03T09:02:17;2.83;;;2.43;;
22193;SDS011;11262;50.308;9.270;2022-08-03T09:04:43;3.50;;;2.77;;
22193;SDS011;11262;50.308;9.270;2022-08-03T09:07:09;5.87;;;2.53;;
22193;SDS011;11262;50.308;9.270;2022-08-03T09:09:35;3.93;;;2.50;;
22193;SDS011;11262;50.308;9.270;2022-08-03T09:12:01;2.90;;;2.60;;
22193;SDS011;11262;50.308;9.270;2022-08-03T09:14:26;4.87;;;2.73;;
22193;SDS011;11262;50.308;9.270;2022-08-03T09:16:58;3.30;;;2.67;;
22193;SDS011;11262;50.308;9.270;2022-08-03T09:19:31;4.07;;;2.73;;
22193;SDS011;11262;50.308;9.270;2022-08-03T09:22:07;4.00;;;2.90;;
22193;SDS011;11262;50.308;9.270;2022-08-03T09:24:38;2.87;;;2.63;;
22193;SDS011;11262;50.308;9.270;2022-08-03T09:27:19;4.57;;;2.90;;
22193;SDS011;11262;50.308;9.270;2022-08-03T09:29:49;4.93;;;2.70;;
22193;SDS011;11262;50.308;9.270;2022-08-03T09:32:23;2.73;;;2.53;;
22193;SDS011;11262;50.308;9.270;2022-08-03T09:34:49;3.43;;;2.90;;
22193;SDS011;11262;50.308;9.270;2022-08-03T09:37:16;6.67;;;2.80;;
22193;SDS011;11262;50.308;9.270;2022-08-03T09:39:44;5.50;;;2.80;;
22193;SDS011;11262;50.308;9.270;2022-08-03T09:42:11;6.00;;;2.80;;
22193;SDS011;11262;50.308;9.270;2022-08-03T09:44:40;2.97;;;2.67;;
22193;SDS011;11262;50.308;9.270;2022-08-03T09:47:08;4.20;;;2.60;;
22193;SDS011;11262;50.308;9.270;2022-08-03T09:49:35;5.43;;;2.67;;
22193;SDS011;11262;50.308;9.270;2022-08-03T09:52:10;3.93;;;2.60;;
22193;SDS011;11262;50.308;9.270;2022-08-03T09:54:40;4.27;;;2.80;;
22193;SDS011;11262;50.308;9.270;2022-08-03T09:57:07;5.73;;;2.60;;
22193;SDS011;11262;50.308;9.270;2022-08-03T09:59:33;2.70;;;2.50;;
22193;SDS011;11262;50.308;9.270;2022-08-03T10:01:59;4.27;;;2.80;;
22193;SDS011;11262;50.308;9.270;2022-08-03T10:04:25;7.67;;;2.40;;
22193;SDS011;11262;50.308;9.270;2022-08-03T10:07:05;4.80;;;2.70;;
22193;SDS011;11262;50.308;9.270;2022-08-03T10:09:37;4.37;;;2.53;;
22193;SDS011;11262;50.308;9.270;2022-08-03T10:12:21;3.20;;;2.90;;
22193;SDS011;11262;50.308;9.270;2022-08-03T10:14:47;6.37;;;2.60;;
22193;SDS011;11262;50.308;9.270;2022-08-03T10:17:13;5.90;;;2.80;;
22193;SDS011;11262;50.308;9.270;2022-08-03T10:19:39;3.93;;;2.90;;
22193;SDS011;11262;50.308;9.270;2022-08-03T10:24:51;6.83;;;2.93;;
22193;SDS011;11262;50.308;9.270;2022-08-03T10:27:18;5.37;;;2.40;;
22193;SDS011;11262;50.308;9.270;2022-08-03T10:29:46;3.07;;;2.77;;
22193;SDS011;11262;50.308;9.270;2022-08-03T10:32:18;3.37;;;2.70;;
22193;SDS011;11262;50.308;9.270;2022-08-03T10:34:47;3.33;;;2.40;;
22193;SDS011;11262;50.308;9.270;2022-08-03T10:37:15;9.67;;;2.67;;
22193;SDS011;11262;50.308;9.270;2022-08-03T10:39:42;6.83;;;2.80;;
22193;SDS011;11262;50.308;9.270;2022-08-03T10:42:18;4.03;;;2.90;;
22193;SDS011;11262;50.308;9.270;2022-08-03T10:44:45;2.93;;;2.67;;
22193;SDS011;11262;50.308;9.270;2022-08-03T10:47:16;6.27;;;3.13;;
22193;SDS011;11262;50.308;9.270;2022-08-03T10:49:43;6.93;;;2.70;;
22193;SDS011;11262;50.308;9.270;2022-08-03T10:52:11;7.07;;;2.80;;
22193;SDS011;11262;50.308;9.270;2022-08-03T10:54:38;4.83;;;2.90;;
22193;SDS011;11262;50.308;9.270;2022-08-03T10:57:44;5.80;;;2.70;;
22193;SDS011;11262;50.308;9.270;2022-08-03T11:00:21;4.90;;;2.60;;
22193;SDS011;11262;50.308;9.270;2022-08-03T11:05:34;3.00;;;2.70;;
22193;SDS011;11262;50.308;9.270;2022-08-03T11:08:22;5.80;;;2.95;;
22193;SDS011;11262;50.308;9.270;2022-08-03T11:10:51;4.70;;;2.80;;
22193;SDS011;11262;50.308;9.270;2022-08-03T11:13:20;3.07;;;2.63;;
22193;SDS011;11262;50.308;9.270;2022-08-03T11:15:48;6.85;;;2.78;;
22193;SDS011;11262;50.308;9.270;2022-08-03T11:18:15;3.70;;;2.80;;
22193;SDS011;11262;50.308;9.270;2022-08-03T11:20:45;4.63;;;2.88;;
22193;SDS011;11262;50.308;9.270;2022-08-03T11:23:41;2.95;;;2.55;;
22193;SDS011;11262;50.308;9.270;2022-08-03T11:26:15;3.90;;;2.40;;
22193;SDS011;11262;50.308;9.270;2022-08-03T11:28:43;2.95;;;2.30;;
22193;SDS011;11262;50.308;9.270;2022-08-03T11:34:08;2.83;;;2.38;;
22193;SDS011;11262;50.308;9.270;2022-08-03T11:39:39;2.83;;;2.58;;
22193;SDS011;11262;50.308;9.270;2022-08-03T11:44:58;4.10;;;2.60;;
22193;SDS011;11262;50.308;9.270;2022-08-03T11:47:24;2.95;;;2.47;;
22193;SDS011;11262;50.308;9.270;2022-08-03T11:49:53;3.47;;;2.30;;
22193;SDS011;11262;50.308;9.270;2022-08-03T11:52:23;3.60;;;2.20;;
22193;SDS011;11262;50.308;9.270;2022-08-03T11:54:49;5.10;;;2.53;;
22193;SDS011;11262;50.308;9.270;2022-08-03T11:57:29;7.22;;;2.45;;
22193;SDS011;11262;50.308;9.270;2022-08-03T11:59:56;5.05;;;2.47;;
22193;SDS011;11262;50.308;9.270;2022-08-03T12:02:22;2.53;;;2.33;;
22193;SDS011;11262;50.308;9.270;2022-08-03T12:04:51;2.58;;;2.38;;
22193;SDS011;11262;50.308;9.270;2022-08-03T12:07:19;3.33;;;2.88;;
22193;SDS011;11262;50.308;9.270;2022-08-03T12:12:37;2.47;;;2.28;;
22193;SDS011;11262;50.308;9.270;2022-08-03T12:15:03;2.95;;;2.55;;
22193;SDS011;11262;50.308;9.270;2022-08-03T12:17:33;3.65;;;2.25;;
22193;SDS011;11262;50.308;9.270;2022-08-03T12:20:00;6.72;;;2.50;;
22193;SDS011;11262;50.308;9.270;2022-08-03T12:22:32;5.05;;;2.28;;
22193;SDS011;11262;50.308;9.270;2022-08-03T12:25:06;7.47;;;2.72;;
22193;SDS011;11262;50.308;9.270;2022-08-03T12:27:33;7.53;;;2.47;;
22193;SDS011;11262;50.308;9.270;2022-08-03T12:29:59;3.15;;;2.35;;
22193;SDS011;11262;50.308;9.270;2022-08-03T12:32:26;7.22;;;2.60;;
22193;SDS011;11262;50.308;9.270;2022-08-03T12:34:53;3.67;;;2.70;;
22193;SDS011;11262;50.308;9.270;2022-08-03T12:37:23;3.15;;;2.40;;
22193;SDS011;11262;50.308;9.270;2022-08-03T12:39:50;4.28;;;2.20;;
22193;SDS011;11262;50.308;9.270;2022-08-03T12:42:16;2.65;;;2.30;;
22193;SDS011;11262;50.308;9.270;2022-08-03T12:44:42;2.67;;;2.40;;
22193;SDS011;11262;50.308;9.270;2022-08-03T12:47:10;2.75;;;2.20;;
22193;SDS011;11262;50.308;9.270;2022-08-03T12:49:48;6.35;;;2.58;;
22193;SDS011;11262;50.308;9.270;2022-08-03T12:52:17;2.30;;;2.08;;
22193;SDS011;11262;50.308;9.270;2022-08-03T12:54:57;4.43;;;2.38;;
22193;SDS011;11262;50.308;9.270;2022-08-03T12:57:24;3.03;;;2.17;;
22193;SDS011;11262;50.308;9.270;2022-08-03T13:00:13;6.28;;;2.42;;
22193;SDS011;11262;50.308;9.270;2022-08-03T13:02:41;2.97;;;2.50;;
22193;SDS011;11262;50.308;9.270;2022-08-03T13:05:08;4.55;;;2.22;;
22193;SDS011;11262;50.308;9.270;2022-08-03T13:07:40;3.25;;;2.20;;
22193;SDS011;11262;50.308;9.270;2022-08-03T13:10:07;4.07;;;2.60;;
22193;SDS011;11262;50.308;9.270;2022-08-03T13:12:44;4.63;;;2.70;;
22193;SDS011;11262;50.308;9.270;2022-08-03T13:15:12;3.60;;;2.55;;
22193;SDS011;11262;50.308;9.270;2022-08-03T13:17:38;3.45;;;2.28;;
22193;SDS011;11262;50.308;9.270;2022-08-03T13:20:04;3.38;;;2.25;;
22193;SDS011;11262;50.308;9.270;2022-08-03T13:22:30;3.70;;;2.50;;
22193;SDS011;11262;50.308;9.270;2022-08-03T13:24:59;2.35;;;2.15;;
22193;SDS011;11262;50.308;9.270;2022-08-03T13:27:27;2.47;;;2.28;;
22193;SDS011;11262;50.308;9.270;2022-08-03T13:29:54;4.47;;;2.40;;
22193;SDS011;11262;50.308;9.270;2022-08-03T13:32:20;5.70;;;2.67;;
22193;SDS011;11262;50.308;9.270;2022-08-03T13:34:46;2.60;;;2.40;;
22193;SDS011;11262;50.308;9.270;2022-08-03T13:37:12;2.40;;;2.20;;
22193;SDS011;11262;50.308;9.270;2022-08-03T13:39:38;2.85;;;2.50;;
22193;SDS011;11262;50.308;9.270;2022-08-03T13:42:04;11.15;;;2.58;;
22193;SDS011;11262;50.308;9.270;2022-08-03T13:44:30;3.70;;;2.83;;
22193;SDS011;11262;50.308;9.270;2022-08-03T13:46:56;4.03;;;2.13;;
22193;SDS011;11262;50.308;9.270;2022-08-03T13:49:24;4.68;;;2.17;;
22193;SDS011;11262;50.308;9.270;2022-08-03T13:51:50;6.80;;;2.53;;
22193;SDS011;11262;50.308;9.270;2022-08-03T13:54:16;4.75;;;3.08;;
22193;SDS011;11262;50.308;9.270;2022-08-03T13:56:43;8.13;;;2.40;;
22193;SDS011;11262;50.308;9.270;2022-08-03T13:59:14;5.47;;;2.50;;
22193;SDS011;11262;50.308;9.270;2022-08-03T14:01:39;7.22;;;2.55;;
22193;SDS011;11262;50.308;9.270;2022-08-03T14:04:05;2.88;;;2.42;;
22193;SDS011;11262;50.308;9.270;2022-08-03T14:06:30;4.55;;;2.38;;
22193;SDS011;11262;50.308;9.270;2022-08-03T14:08:56;2.58;;;2.38;;
22193;SDS011;11262;50.308;9.270;2022-08-03T14:11:22;3.80;;;2.45;;
22193;SDS011;11262;50.308;9.270;2022-08-03T14:13:47;5.97;;;2.60;;
22193;SDS011;11262;50.308;9.270;2022-08-03T14:16:13;2.60;;;2.30;;
22193;SDS011;11262;50.308;9.270;2022-08-03T14:18:38;5.15;;;2.50;;
22193;SDS011;11262;50.308;9.270;2022-08-03T14:21:06;5.70;;;2.30;;
22193;SDS011;11262;50.308;9.270;2022-08-03T14:23:32;8.75;;;2.35;;
22193;SDS011;11262;50.308;9.270;2022-08-03T14:26:01;5.78;;;2.50;;
22193;SDS011;11262;50.308;9.270;2022-08-03T14:28:27;8.73;;;2.78;;
22193;SDS011;11262;50.308;9.270;2022-08-03T14:30:54;6.60;;;2.42;;
22193;SDS011;11262;50.308;9.270;2022-08-03T14:33:20;3.78;;;2.30;;
22193;SDS011;11262;50.308;9.270;2022-08-03T14:35:46;5.93;;;2.53;;
22193;SDS011;11262;50.308;9.270;2022-08-03T14:38:11;2.60;;;2.40;;
22193;SDS011;11262;50.308;9.270;2022-08-03T14:40:37;5.47;;;2.42;;
22193;SDS011;11262;50.308;9.270;2022-08-03T14:43:03;6.85;;;2.45;;
22193;SDS011;11262;50.308;9.270;2022-08-03T14:45:28;2.80;;;2.33;;
22193;SDS011;11262;50.308;9.270;2022-08-03T14:47:54;6.75;;;2.63;;
22193;SDS011;11262;50.308;9.270;2022-08-03T14:50:20;4.03;;;2.60;;
22193;SDS011;11262;50.308;9.270;2022-08-03T14:52:47;3.10;;;2.38;;
22193;SDS011;11262;50.308;9.270;2022-08-03T14:55:12;5.63;;;2.40;;
22193;SDS011;11262;50.308;9.270;2022-08-03T14:57:38;7.53;;;2.60;;
22193;SDS011;11262;50.308;9.270;2022-08-03T15:00:03;4.10;;;2.30;;
22193;SDS011;11262;50.308;9.270;2022-08-03T15:02:29;4.03;;;2.33;;
22193;SDS011;11262;50.308;9.270;2022-08-03T15:04:55;3.20;;;2.53;;
22193;SDS011;11262;50.308;9.270;2022-08-03T15:07:21;9.25;;;2.28;;
22193;SDS011;11262;50.308;9.270;2022-08-03T15:09:46;5.65;;;2.47;;
22193;SDS011;11262;50.308;9.270;2022-08-03T15:12:12;3.88;;;2.22;;
22193;SDS011;11262;50.308;9.270;2022-08-03T15:14:37;7.05;;;2.60;;
22193;SDS011;11262;50.308;9.270;2022-08-03T15:17:03;5.18;;;2.42;;
22193;SDS011;11262;50.308;9.270;2022-08-03T15:19:29;5.10;;;2.60;;
22193;SDS011;11262;50.308;9.270;2022-08-03T15:21:54;4.32;;;2.40;;
22193;SDS011;11262;50.308;9.270;2022-08-03T15:24:20;2.67;;;2.47;;
22193;SDS011;11262;50.308;9.270;2022-08-03T15:26:45;2.75;;;2.38;;